Time;durP1;ratioP1;P1;durP2;ratioP2;P2;SDS_P1;SDS_P2;PMS_P1;PMS_P2;Temp;Humidity;BMP_temperature;BMP_pressure;BME280_temperature;BME280_humidity;BME280_pressure;Samples;Min_cycle;Max_cycle;Signal;HPM_P1;HPM_P2
2023/09/06 00:03:41;;;;;;;7.43;5.00;;;;;;;;;;5076177;28;20164;-73
2023/09/06 00:06:10;;;;;;;5.53;4.83;;;;;;;;;;5075863;28;20197;-73
2023/09/06 00:08:37;;;;;;;7.80;5.07;;;;;;;;;;5041868;28;20194;-73
2023/09/06 00:11:06;;;;;;;5.57;4.77;;;;;;;;;;5075897;28;20182;-73
2023/09/06 00:13:52;;;;;;;6.30;4.80;;;;;;;;;;5060969;28;20169;-73
2023/09/06 00:16:20;;;;;;;6.00;4.60;;;;;;;;;;5070605;28;20190;-73
2023/09/06 00:19:04;;;;;;;5.90;4.13;;;;;;;;;;5056410;28;20170;-73
2023/09/06 00:21:32;;;;;;;5.73;4.33;;;;;;;;;;5055624;28;20207;-73
2023/09/06 00:28:09;;;;;;;6.90;4.07;;;;;;;;;;5055825;28;20620;-73
2023/09/06 00:30:57;;;;;;;7.17;4.77;;;;;;;;;;5010232;28;20206;-73
2023/09/06 00:33:26;;;;;;;5.80;4.53;;;;;;;;;;5022190;28;20191;-72
2023/09/06 00:39:47;;;;;;;5.30;4.13;;;;;;;;;;5055902;28;20198;-73
2023/09/06 00:42:14;;;;;;;4.80;4.20;;;;;;;;;;5055561;28;20186;-73
2023/09/06 00:48:40;;;;;;;8.43;4.87;;;;;;;;;;5055572;28;20154;-73
2023/09/06 00:51:07;;;;;;;4.50;4.10;;;;;;;;;;5054871;28;20562;-73
2023/09/06 00:53:34;;;;;;;4.57;4.10;;;;;;;;;;5037499;28;20665;-73
2023/09/06 01:00:02;;;;;;;4.37;3.97;;;;;;;;;;5055256;28;20277;-73
2023/09/06 01:02:29;;;;;;;4.73;3.87;;;;;;;;;;5037639;28;20195;-73
2023/09/06 01:04:56;;;;;;;5.60;3.50;;;;;;;;;;5055145;28;20178;-73
2023/09/06 01:07:23;;;;;;;5.50;4.10;;;;;;;;;;5054839;28;20190;-73
2023/09/06 01:09:51;;;;;;;4.10;3.40;;;;;;;;;;5037257;28;20195;-72
2023/09/06 01:48:40;;;;;;;4.40;4.00;;;;;;;;;;5053858;28;20241;-72
2023/09/06 01:55:13;;;;;;;4.53;3.33;;;;;;;;;;5072159;28;20529;-73
2023/09/06 02:01:38;;;;;;;4.30;3.30;;;;;;;;;;5074189;28;20659;-73
2023/09/06 02:04:06;;;;;;;4.80;3.23;;;;;;;;;;5056040;28;20728;-73
2023/09/06 02:06:33;;;;;;;4.23;3.67;;;;;;;;;;5056106;28;20645;-72
2023/09/06 02:08:59;;;;;;;5.77;4.93;;;;;;;;;;5073764;28;20583;-72
2023/09/06 02:11:26;;;;;;;6.10;4.23;;;;;;;;;;5055859;28;20194;-72
2023/09/06 02:13:53;;;;;;;5.90;5.30;;;;;;;;;;5056949;28;20186;-73
2023/09/06 02:16:21;;;;;;;4.67;4.10;;;;;;;;;;5073943;28;20629;-72
2023/09/06 02:18:50;;;;;;;6.23;4.63;;;;;;;;;;5056365;28;20197;-73
2023/09/06 02:25:11;;;;;;;5.97;4.30;;;;;;;;;;5073650;28;20185;-72
2023/09/06 02:27:40;;;;;;;4.87;4.40;;;;;;;;;;5056179;28;20186;-72
2023/09/06 02:34:07;;;;;;;5.13;4.53;;;;;;;;;;5073554;28;20212;-72
2023/09/06 02:36:33;;;;;;;4.50;4.10;;;;;;;;;;5073880;28;20637;-73
2023/09/06 02:39:18;;;;;;;4.40;4.00;;;;;;;;;;5073787;28;20158;-72
2023/09/06 02:41:46;;;;;;;5.90;4.33;;;;;;;;;;5072632;28;20210;-72
2023/09/06 02:44:13;;;;;;;4.53;3.60;;;;;;;;;;5039064;28;20222;-72
2023/09/06 02:46:40;;;;;;;4.40;3.67;;;;;;;;;;5072233;28;20198;-72
2023/09/06 02:49:11;;;;;;;4.73;3.93;;;;;;;;;;5041150;28;20288;-73
2023/09/06 02:51:38;;;;;;;6.13;3.87;;;;;;;;;;5060457;28;20170;-73
2023/09/06 02:58:07;;;;;;;4.87;3.53;;;;;;;;;;5077445;28;20533;-72
2023/09/06 03:00:36;;;;;;;4.10;3.70;;;;;;;;;;5043211;28;20213;-72
2023/09/06 03:03:06;;;;;;;3.73;3.23;;;;;;;;;;5077087;28;20210;-71
2023/09/06 03:05:35;;;;;;;3.93;3.57;;;;;;;;;;5043290;28;20614;-73
2023/09/06 03:08:06;;;;;;;4.37;3.50;;;;;;;;;;5078179;28;20182;-72
2023/09/06 03:14:34;;;;;;;5.63;4.10;;;;;;;;;;5077466;28;20572;-72
2023/09/06 03:21:04;;;;;;;5.37;4.80;;;;;;;;;;5077202;28;20252;-72
2023/09/06 03:23:32;;;;;;;5.43;3.90;;;;;;;;;;5060643;28;20190;-73
2023/09/06 03:26:00;;;;;;;5.53;5.03;;;;;;;;;;5059813;28;20277;-72
2023/09/06 03:28:31;;;;;;;4.57;3.87;;;;;;;;;;5075710;28;20190;-72
2023/09/06 03:30:58;;;;;;;5.73;3.83;;;;;;;;;;5058918;28;20628;-72
2023/09/06 03:33:26;;;;;;;6.97;4.77;;;;;;;;;;5026258;28;20186;-73
2023/09/06 03:35:53;;;;;;;5.50;4.60;;;;;;;;;;5058914;28;20202;-72
2023/09/06 03:42:15;;;;;;;6.00;4.50;;;;;;;;;;5076548;28;20185;-72
2023/09/06 03:44:46;;;;;;;5.40;3.70;;;;;;;;;;5058900;28;20188;-73
2023/09/06 03:47:14;;;;;;;3.93;3.60;;;;;;;;;;5077299;28;20174;-73
2023/09/06 03:53:42;;;;;;;7.60;4.27;;;;;;;;;;5076377;28;20211;-73
2023/09/06 03:56:10;;;;;;;5.70;5.07;;;;;;;;;;5059047;28;20213;-72
2023/09/06 04:02:59;;;;;;;8.23;5.30;;;;;;;;;;5056427;28;20300;-71
2023/09/06 04:09:31;;;;;;;9.30;5.10;;;;;;;;;;5056606;28;20614;-71
2023/09/06 04:12:16;;;;;;;6.43;5.13;;;;;;;;;;5038373;28;20205;-73
2023/09/06 04:14:43;;;;;;;6.47;4.23;;;;;;;;;;5038267;28;20274;-75
2023/09/06 04:17:12;;;;;;;10.17;4.40;;;;;;;;;;5055025;28;20230;-71
2023/09/06 04:19:39;;;;;;;9.80;4.63;;;;;;;;;;5038651;28;20191;-71
2023/09/06 04:22:09;;;;;;;6.57;4.07;;;;;;;;;;5054184;28;20265;-71
2023/09/06 04:24:38;;;;;;;12.23;4.80;;;;;;;;;;5054935;28;20194;-72
2023/09/06 04:27:07;;;;;;;5.83;3.77;;;;;;;;;;5038824;28;20252;-72
2023/09/06 04:29:34;;;;;;;8.63;3.77;;;;;;;;;;5054504;28;20241;-72
2023/09/06 04:32:01;;;;;;;5.63;4.00;;;;;;;;;;5054353;28;20214;-73
2023/09/06 04:34:29;;;;;;;7.07;3.57;;;;;;;;;;5055526;28;20566;-73
2023/09/06 04:36:58;;;;;;;5.63;3.70;;;;;;;;;;5054835;28;20205;-73
2023/09/06 04:39:29;;;;;;;4.30;3.90;;;;;;;;;;5055906;28;20187;-73
2023/09/06 04:41:59;;;;;;;5.20;3.90;;;;;;;;;;5055654;28;20214;-73
2023/09/06 04:44:28;;;;;;;6.03;4.47;;;;;;;;;;5037988;28;20195;-73
2023/09/06 04:46:57;;;;;;;4.83;3.93;;;;;;;;;;5055007;28;20194;-73
2023/09/06 04:49:24;;;;;;;9.57;5.93;;;;;;;;;;5055962;28;20186;-74
2023/09/06 04:51:52;;;;;;;7.83;4.30;;;;;;;;;;5056275;28;20198;-73
2023/09/06 04:54:21;;;;;;;8.73;4.80;;;;;;;;;;5037954;28;20195;-73
2023/09/06 04:56:48;;;;;;;20.50;5.77;;;;;;;;;;5054185;28;20250;-71
2023/09/06 04:59:16;;;;;;;8.63;4.57;;;;;;;;;;5005189;28;20618;-71
2023/09/06 05:01:44;;;;;;;14.57;7.00;;;;;;;;;;5053866;28;20650;-71
2023/09/06 05:04:12;;;;;;;7.80;4.40;;;;;;;;;;5021666;28;20195;-73
2023/09/06 05:06:48;;;;;;;8.97;5.37;;;;;;;;;;5055371;28;20197;-72
2023/09/06 05:13:14;;;;;;;9.23;6.50;;;;;;;;;;5054753;28;20695;-72
2023/09/06 05:15:42;;;;;;;7.67;6.27;;;;;;;;;;5020937;28;20191;-72
2023/09/06 05:18:11;;;;;;;9.27;5.80;;;;;;;;;;5021434;28;20248;-71
2023/09/06 05:20:41;;;;;;;10.43;5.43;;;;;;;;;;5055299;28;20214;-71
2023/09/06 05:23:14;;;;;;;7.70;5.80;;;;;;;;;;5021740;28;20200;-72
2023/09/06 05:29:44;;;;;;;9.30;6.57;;;;;;;;;;5054727;28;20628;-71
2023/09/06 05:32:13;;;;;;;11.20;6.90;;;;;;;;;;5037157;28;20709;-72
2023/09/06 05:34:43;;;;;;;10.07;6.43;;;;;;;;;;5039203;28;20197;-71
2023/09/06 05:37:12;;;;;;;9.03;6.43;;;;;;;;;;5036982;28;20725;-71
2023/09/06 05:39:40;;;;;;;10.03;6.60;;;;;;;;;;5020657;28;20237;-70
2023/09/06 05:46:06;;;;;;;7.23;6.23;;;;;;;;;;5054977;28;20150;-71
2023/09/06 05:48:55;;;;;;;12.40;6.33;;;;;;;;;;5023677;28;20186;-72
2023/09/06 05:55:25;;;;;;;6.47;5.67;;;;;;;;;;5054595;28;20225;-72
2023/09/06 06:02:02;;;;;;;7.13;5.27;;;;;;;;;;5070247;28;20247;-71
2023/09/06 06:08:30;;;;;;;9.87;4.83;;;;;;;;;;5073899;28;20149;-70
2023/09/06 06:15:00;;;;;;;4.77;3.83;;;;;;;;;;5069844;28;20157;-71
2023/09/06 06:17:27;;;;;;;4.80;4.20;;;;;;;;;;5039556;28;20190;-70
2023/09/06 06:19:54;;;;;;;5.60;3.73;;;;;;;;;;5056947;28;20640;-71
2023/09/06 06:26:21;;;;;;;5.03;3.50;;;;;;;;;;5073867;28;20597;-74
2023/09/06 06:28:49;;;;;;;10.57;4.33;;;;;;;;;;5073961;28;20208;-75
2023/09/06 06:39:50;;;;;;;6.77;3.93;;;;;;;;;;5073865;28;20624;-73
2023/09/06 06:42:18;;;;;;;6.67;3.80;;;;;;;;;;5074030;28;20533;-71
2023/09/06 06:48:48;;;;;;;4.97;4.10;;;;;;;;;;5068552;28;20621;-77
2023/09/06 06:55:15;;;;;;;5.10;3.87;;;;;;;;;;5074133;28;20169;-75
2023/09/06 06:58:00;;;;;;;4.73;3.90;;;;;;;;;;5073957;28;20213;-76
2023/09/06 07:04:26;;;;;;;5.57;3.70;;;;;;;;;;5073928;28;20200;-78
2023/09/06 07:10:52;;;;;;;5.43;3.20;;;;;;;;;;5070531;28;20170;-76
2023/09/06 07:17:19;;;;;;;4.27;2.90;;;;;;;;;;5074868;28;20173;-77
2023/09/06 07:19:47;;;;;;;4.57;2.90;;;;;;;;;;5071239;28;20625;-76
2023/09/06 07:22:15;;;;;;;5.73;3.17;;;;;;;;;;5039879;28;20667;-79
2023/09/06 07:24:45;;;;;;;6.40;2.70;;;;;;;;;;5073433;28;20259;-75
2023/09/06 07:31:14;;;;;;;4.33;2.50;;;;;;;;;;5072324;28;20155;-75
2023/09/06 07:37:43;;;;;;;6.97;2.70;;;;;;;;;;5077746;28;20211;-74
2023/09/06 07:40:13;;;;;;;5.93;3.37;;;;;;;;;;5060142;28;20192;-75
2023/09/06 07:42:40;;;;;;;5.23;3.40;;;;;;;;;;5077259;28;20223;-74
2023/09/06 07:45:07;;;;;;;4.10;2.60;;;;;;;;;;5077691;28;20218;-74
2023/09/06 07:47:34;;;;;;;26.93;4.20;;;;;;;;;;5077155;28;20192;-74
2023/09/06 07:50:05;;;;;;;3.57;2.63;;;;;;;;;;5055130;28;20294;-74
2023/09/06 07:52:33;;;;;;;6.43;3.10;;;;;;;;;;5040222;28;20237;-72
2023/09/06 07:55:00;;;;;;;6.33;2.97;;;;;;;;;;5058507;28;20196;-72
2023/09/06 07:57:47;;;;;;;4.63;2.60;;;;;;;;;;5039956;28;20684;-71
2023/09/06 08:00:16;;;;;;;7.47;2.80;;;;;;;;;;5040085;28;20266;-73
2023/09/06 08:11:25;;;;;;;6.03;2.40;;;;;;;;;;5056976;28;20162;-81
2023/09/06 08:13:54;;;;;;;3.63;2.20;;;;;;;;;;5059420;28;20190;-72
2023/09/06 08:16:23;;;;;;;3.70;2.53;;;;;;;;;;5058534;28;20191;-73
2023/09/06 08:18:55;;;;;;;3.37;2.20;;;;;;;;;;5024252;28;20191;-77
2023/09/06 08:25:24;;;;;;;3.30;2.10;;;;;;;;;;5058617;28;20177;-79
2023/09/06 08:27:53;;;;;;;4.40;2.33;;;;;;;;;;5024034;28;20190;-78
2023/09/06 08:30:21;;;;;;;2.93;1.93;;;;;;;;;;5039733;28;20186;-78
2023/09/06 08:36:45;;;;;;;3.57;1.93;;;;;;;;;;5058589;28;20177;-74
2023/09/06 08:39:14;;;;;;;8.03;2.20;;;;;;;;;;5057847;28;20187;-75
2023/09/06 08:42:03;;;;;;;5.90;2.40;;;;;;;;;;5056794;28;20187;-73
2023/09/06 08:48:30;;;;;;;5.30;2.17;;;;;;;;;;5055784;28;20190;-73
2023/09/06 08:50:58;;;;;;;4.60;2.20;;;;;;;;;;5021452;28;20194;-74
2023/09/06 08:53:43;;;;;;;6.03;2.00;;;;;;;;;;5040677;28;20158;-73
2023/09/06 08:56:10;;;;;;;3.97;2.20;;;;;;;;;;5021702;28;20186;-73
2023/09/06 08:58:38;;;;;;;4.67;2.07;;;;;;;;;;5075447;28;20218;-72
2023/09/06 09:05:05;;;;;;;2.27;1.80;;;;;;;;;;5075489;28;20177;-71
2023/09/06 09:07:46;;;;;;;5.00;1.80;;;;;;;;;;5056973;28;20633;-71
2023/09/06 09:14:07;;;;;;;3.03;1.90;;;;;;;;;;5076056;28;20209;-77
2023/09/06 09:16:34;;;;;;;2.97;1.93;;;;;;;;;;5041245;28;20198;-73
2023/09/06 09:19:01;;;;;;;1.80;1.70;;;;;;;;;;5073820;28;20260;-72
2023/09/06 09:21:29;;;;;;;5.53;2.20;;;;;;;;;;5057481;28;20293;-72
2023/09/06 09:27:51;;;;;;;2.23;1.97;;;;;;;;;;5069703;28;20174;-73
2023/09/06 09:30:19;;;;;;;3.47;2.00;;;;;;;;;;5056933;28;20186;-73
2023/09/06 09:36:50;;;;;;;2.90;1.93;;;;;;;;;;5075341;28;20187;-72
2023/09/06 09:43:21;;;;;;;2.50;1.80;;;;;;;;;;5074471;28;20228;-71
2023/09/06 09:45:48;;;;;;;4.93;1.90;;;;;;;;;;5055357;28;20240;-71
2023/09/06 09:48:15;;;;;;;5.43;2.30;;;;;;;;;;5036774;28;20645;-71
2023/09/06 09:50:43;;;;;;;4.30;2.17;;;;;;;;;;5036543;28;20198;-72
2023/09/06 09:57:11;;;;;;;3.87;1.90;;;;;;;;;;5054435;28;20214;-74
2023/09/06 10:03:39;;;;;;;3.20;1.70;;;;;;;;;;5057005;28;20162;-82
2023/09/06 10:06:06;;;;;;;5.93;2.10;;;;;;;;;;5054456;28;20249;-79
2023/09/06 10:12:27;;;;;;;2.60;2.03;;;;;;;;;;5055784;28;20194;-79
2023/09/06 10:18:50;;;;;;;4.07;1.90;;;;;;;;;;5054916;28;20247;-74
2023/09/06 10:29:25;;;;;;;8.87;2.00;;;;;;;;;;5054070;28;20153;-71
2023/09/06 10:31:52;;;;;;;2.90;2.00;;;;;;;;;;5003706;28;20290;-71
2023/09/06 10:34:21;;;;;;;4.63;1.73;;;;;;;;;;5053849;28;20652;-71
2023/09/06 10:40:50;;;;;;;2.30;1.60;;;;;;;;;;5053851;28;20153;-71
2023/09/06 10:43:22;;;;;;;3.63;1.70;;;;;;;;;;5036011;28;20190;-71
2023/09/06 10:45:54;;;;;;;2.00;1.80;;;;;;;;;;5036821;28;20252;-71
2023/09/06 10:48:22;;;;;;;4.60;1.80;;;;;;;;;;5020397;28;20173;-71
2023/09/06 10:54:43;;;;;;;5.97;2.00;;;;;;;;;;5053445;28;20162;-71
2023/09/06 10:57:12;;;;;;;4.00;3.60;;;;;;;;;;5035567;28;20272;-70
2023/09/06 11:03:46;;;;;;;4.50;3.77;;;;;;;;;;5053496;28;20173;-72
2023/09/06 11:10:12;;;;;;;5.50;4.10;;;;;;;;;;5055268;28;20690;-70
2023/09/06 11:12:39;;;;;;;5.73;4.20;;;;;;;;;;5057498;28;20658;-69
2023/09/06 11:19:00;;;;;;;3.73;2.70;;;;;;;;;;5057024;28;20608;-71
2023/09/06 11:21:27;;;;;;;4.03;2.70;;;;;;;;;;5056852;28;20256;-72
2023/09/06 11:23:56;;;;;;;5.50;2.80;;;;;;;;;;5056182;28;20201;-70
2023/09/06 11:26:23;;;;;;;4.43;2.27;;;;;;;;;;5039633;28;20190;-69
2023/09/06 11:28:59;;;;;;;2.63;2.17;;;;;;;;;;5056692;28;20191;-71
2023/09/06 11:31:30;;;;;;;5.57;2.20;;;;;;;;;;5040327;28;20194;-71
2023/09/06 11:37:58;;;;;;;6.63;2.40;;;;;;;;;;5056874;28;20213;-69
2023/09/06 11:40:28;;;;;;;5.00;2.60;;;;;;;;;;5039492;28;20522;-68
2023/09/06 11:42:56;;;;;;;4.67;2.70;;;;;;;;;;5038795;28;20238;-69
2023/09/06 11:45:24;;;;;;;3.90;2.83;;;;;;;;;;5038851;28;20201;-71
2023/09/06 11:47:52;;;;;;;5.23;4.00;;;;;;;;;;5039044;28;20187;-71
2023/09/06 11:54:24;;;;;;;24.10;4.70;;;;;;;;;;5056508;28;20161;-71
2023/09/06 11:56:51;;;;;;;11.00;3.60;;;;;;;;;;5056030;28;20602;-71
2023/09/06 11:59:20;;;;;;;4.67;2.60;;;;;;;;;;5039145;28;20569;-71
2023/09/06 12:05:47;;;;;;;5.57;4.20;;;;;;;;;;5056479;28;20161;-69
2023/09/06 12:08:19;;;;;;;4.80;4.27;;;;;;;;;;5039045;28;20650;-71
2023/09/06 12:14:42;;;;;;;5.67;3.63;;;;;;;;;;5056002;28;20313;-70
2023/09/06 12:17:26;;;;;;;5.93;3.80;;;;;;;;;;5041068;28;20155;-69
2023/09/06 12:23:53;;;;;;;4.93;3.13;;;;;;;;;;5055915;28;20154;-72
2023/09/06 12:26:20;;;;;;;4.53;2.77;;;;;;;;;;5038319;28;20206;-71
2023/09/06 12:28:47;;;;;;;5.97;3.20;;;;;;;;;;5038031;28;20230;-69
2023/09/06 12:31:15;;;;;;;4.33;2.90;;;;;;;;;;5055951;28;20191;-70
2023/09/06 12:41:42;;;;;;;3.53;2.70;;;;;;;;;;5055555;28;20318;-71
2023/09/06 12:44:09;;;;;;;2.73;2.47;;;;;;;;;;5055510;28;20315;-71
2023/09/06 12:46:36;;;;;;;3.67;2.47;;;;;;;;;;5037844;28;20218;-69
2023/09/06 12:49:04;;;;;;;2.70;2.50;;;;;;;;;;5037885;28;20192;-72
2023/09/06 12:51:50;;;;;;;2.70;2.37;;;;;;;;;;5026836;28;20169;-73
2023/09/06 12:54:17;;;;;;;5.30;2.77;;;;;;;;;;5037683;28;20277;-71
2023/09/06 12:57:01;;;;;;;4.80;2.90;;;;;;;;;;5055827;28;20213;-72
2023/09/06 12:59:29;;;;;;;4.10;2.77;;;;;;;;;;5037945;28;20236;-71
2023/09/06 13:01:57;;;;;;;4.57;2.60;;;;;;;;;;5037505;28;20252;-70
2023/09/06 13:04:24;;;;;;;5.23;3.00;;;;;;;;;;5005370;28;20194;-71
2023/09/06 13:06:53;;;;;;;4.37;2.50;;;;;;;;;;5037911;28;20179;-71
2023/09/06 13:09:24;;;;;;;5.67;2.93;;;;;;;;;;5048561;28;20195;-71
2023/09/06 13:11:51;;;;;;;3.03;2.70;;;;;;;;;;5053822;28;20217;-70
2023/09/06 13:14:19;;;;;;;5.10;3.00;;;;;;;;;;5055324;28;20638;-70
2023/09/06 13:16:47;;;;;;;4.40;3.00;;;;;;;;;;5053766;28;20194;-69
2023/09/06 13:19:15;;;;;;;3.27;2.73;;;;;;;;;;5037486;28;20656;-70
2023/09/06 13:21:42;;;;;;;4.93;2.90;;;;;;;;;;5053643;28;20202;-69
2023/09/06 13:24:12;;;;;;;6.03;2.80;;;;;;;;;;5037178;28;20187;-69
2023/09/06 13:26:40;;;;;;;4.10;2.80;;;;;;;;;;5054041;28;20584;-70
2023/09/06 13:29:07;;;;;;;5.03;3.10;;;;;;;;;;5054799;28;20183;-72
2023/09/06 13:31:52;;;;;;;3.40;2.70;;;;;;;;;;5039616;28;20254;-70
2023/09/06 13:34:23;;;;;;;4.47;2.70;;;;;;;;;;5054312;28;20565;-70
2023/09/06 13:36:51;;;;;;;4.60;3.10;;;;;;;;;;5020674;28;20242;-70
2023/09/06 13:39:19;;;;;;;5.37;2.63;;;;;;;;;;5054540;28;20183;-70
2023/09/06 13:41:47;;;;;;;2.93;2.47;;;;;;;;;;5020356;28;20692;-70
2023/09/06 13:44:15;;;;;;;4.17;2.40;;;;;;;;;;5021199;28;20630;-69
2023/09/06 13:46:44;;;;;;;3.37;2.50;;;;;;;;;;5053445;28;20186;-71
2023/09/06 13:49:12;;;;;;;3.03;2.50;;;;;;;;;;5020141;28;20630;-70
2023/09/06 13:51:41;;;;;;;4.33;2.60;;;;;;;;;;5020100;28;20202;-71
2023/09/06 13:54:08;;;;;;;4.47;2.47;;;;;;;;;;5036963;28;20579;-71
2023/09/06 13:56:34;;;;;;;4.73;3.00;;;;;;;;;;5054286;28;20280;-72
2023/09/06 13:59:03;;;;;;;4.47;2.70;;;;;;;;;;5054103;28;20172;-71
2023/09/06 14:01:30;;;;;;;4.87;2.90;;;;;;;;;;5020160;28;20647;-70
2023/09/06 14:03:57;;;;;;;4.07;2.53;;;;;;;;;;5054002;28;20224;-69
2023/09/06 14:06:42;;;;;;;4.53;2.27;;;;;;;;;;5039580;28;20151;-69
2023/09/06 14:09:10;;;;;;;3.50;2.70;;;;;;;;;;5052601;28;20581;-70
2023/09/06 14:11:38;;;;;;;2.87;2.40;;;;;;;;;;5036669;28;20245;-70
2023/09/06 14:14:05;;;;;;;3.93;2.40;;;;;;;;;;5036262;28;20182;-70
2023/09/06 14:16:33;;;;;;;3.60;2.60;;;;;;;;;;5036401;28;20693;-69
2023/09/06 14:19:00;;;;;;;7.67;2.90;;;;;;;;;;5036249;28;20195;-69
2023/09/06 14:21:27;;;;;;;10.23;2.70;;;;;;;;;;5036177;28;20748;-70
2023/09/06 14:23:54;;;;;;;4.73;2.50;;;;;;;;;;5054021;28;20210;-68
2023/09/06 14:26:22;;;;;;;5.07;2.73;;;;;;;;;;5052924;28;20190;-69
2023/09/06 14:28:50;;;;;;;6.60;2.67;;;;;;;;;;5037177;28;20190;-70
2023/09/06 14:31:17;;;;;;;4.47;2.70;;;;;;;;;;5067117;28;20635;-72
2023/09/06 14:33:45;;;;;;;3.23;2.80;;;;;;;;;;5093291;28;20413;-72
2023/09/06 14:36:12;;;;;;;9.93;3.20;;;;;;;;;;5094042;28;20662;-72
2023/09/06 14:38:39;;;;;;;6.80;2.60;;;;;;;;;;5075894;28;20577;-69
2023/09/06 14:41:07;;;;;;;4.27;2.33;;;;;;;;;;5076223;28;20264;-69
2023/09/06 14:43:35;;;;;;;3.60;2.90;;;;;;;;;;5061311;28;20240;-69
2023/09/06 14:46:06;;;;;;;4.13;2.70;;;;;;;;;;5082484;28;20185;-70
2023/09/06 14:48:51;;;;;;;5.83;2.67;;;;;;;;;;5086112;28;20195;-70
2023/09/06 14:51:21;;;;;;;3.60;2.30;;;;;;;;;;5083640;28;20250;-70
2023/09/06 14:53:50;;;;;;;3.40;2.70;;;;;;;;;;5065987;28;20635;-71
2023/09/06 14:56:18;;;;;;;2.63;2.43;;;;;;;;;;5099092;28;20185;-69
2023/09/06 14:58:46;;;;;;;2.60;2.40;;;;;;;;;;5083160;28;20189;-71
2023/09/06 15:01:32;;;;;;;4.77;2.70;;;;;;;;;;5086186;28;20154;-69
2023/09/06 15:03:59;;;;;;;3.20;2.70;;;;;;;;;;5100279;28;20201;-70
2023/09/06 15:06:26;;;;;;;3.40;2.60;;;;;;;;;;5100958;28;20181;-71
2023/09/06 15:09:14;;;;;;;3.47;3.00;;;;;;;;;;5100967;28;20173;-70
2023/09/06 15:11:42;;;;;;;5.97;2.87;;;;;;;;;;5082735;28;20185;-71
2023/09/06 15:14:09;;;;;;;4.70;2.60;;;;;;;;;;5100408;28;20259;-71
2023/09/06 15:16:36;;;;;;;3.27;2.50;;;;;;;;;;5100178;28;20185;-77
2023/09/06 15:19:03;;;;;;;3.83;2.77;;;;;;;;;;5100775;28;20176;-73
2023/09/06 15:21:31;;;;;;;3.83;2.80;;;;;;;;;;5100313;28;20272;-73
2023/09/06 15:27:58;;;;;;;4.23;2.77;;;;;;;;;;5100311;28;20177;-73
2023/09/06 15:30:26;;;;;;;3.37;2.70;;;;;;;;;;5082456;28;20222;-73
2023/09/06 15:32:52;;;;;;;4.77;2.87;;;;;;;;;;5100714;28;20279;-73
2023/09/06 15:35:24;;;;;;;3.70;3.13;;;;;;;;;;5098861;28;20226;-73
2023/09/06 15:37:57;;;;;;;5.40;2.90;;;;;;;;;;5079895;28;20244;-73
2023/09/06 15:40:24;;;;;;;4.70;2.77;;;;;;;;;;5062144;28;20190;-72
2023/09/06 15:46:57;;;;;;;3.37;3.07;;;;;;;;;;5079793;28;20209;-72
2023/09/06 15:49:24;;;;;;;5.40;3.63;;;;;;;;;;5062437;28;20642;-73
2023/09/06 15:51:52;;;;;;;4.33;3.20;;;;;;;;;;5080183;28;20190;-71
2023/09/06 15:58:24;;;;;;;3.60;2.90;;;;;;;;;;5076766;28;20362;-70
2023/09/06 16:00:52;;;;;;;7.33;3.63;;;;;;;;;;5076386;28;20186;-70
2023/09/06 16:07:13;;;;;;;5.80;3.30;;;;;;;;;;5076580;28;20651;-71
2023/09/06 16:13:39;;;;;;;5.50;3.30;;;;;;;;;;5076239;28;20189;-70
2023/09/06 16:16:07;;;;;;;3.87;3.47;;;;;;;;;;5057005;28;20189;-71
2023/09/06 16:18:35;;;;;;;4.57;3.93;;;;;;;;;;5074421;28;20194;-70
2023/09/06 16:21:04;;;;;;;4.00;3.20;;;;;;;;;;5076566;28;20181;-70
2023/09/06 16:23:48;;;;;;;5.40;3.23;;;;;;;;;;5045180;28;20194;-71
2023/09/06 16:26:16;;;;;;;6.50;3.37;;;;;;;;;;5042001;28;20659;-70
2023/09/06 16:32:54;;;;;;;4.70;3.37;;;;;;;;;;5076197;28;20177;-70
2023/09/06 16:35:22;;;;;;;3.73;3.30;;;;;;;;;;5041871;28;20641;-70
2023/09/06 16:37:50;;;;;;;4.23;3.30;;;;;;;;;;5075910;28;20178;-72
2023/09/06 16:40:20;;;;;;;5.20;3.60;;;;;;;;;;5057522;28;20194;-71
2023/09/06 16:46:51;;;;;;;6.17;3.70;;;;;;;;;;5071431;28;20185;-71
2023/09/06 16:49:19;;;;;;;4.60;3.70;;;;;;;;;;5075687;28;20186;-71
2023/09/06 16:51:47;;;;;;;4.83;3.80;;;;;;;;;;5041198;28;20533;-69
2023/09/06 16:54:14;;;;;;;6.43;4.07;;;;;;;;;;5075537;28;20174;-70
2023/09/06 16:56:42;;;;;;;5.37;4.70;;;;;;;;;;5057224;28;20186;-68
2023/09/06 16:59:09;;;;;;;9.17;4.40;;;;;;;;;;5057691;28;20192;-72
2023/09/06 17:01:37;;;;;;;7.87;4.70;;;;;;;;;;5057772;28;20198;-72
2023/09/06 17:04:05;;;;;;;6.00;4.57;;;;;;;;;;5041079;28;20221;-71
2023/09/06 17:06:33;;;;;;;5.83;4.10;;;;;;;;;;5057722;28;20277;-71
2023/09/06 17:09:01;;;;;;;6.20;4.10;;;;;;;;;;5041231;28;20521;-71
2023/09/06 17:11:28;;;;;;;6.37;3.60;;;;;;;;;;5057378;28;20190;-71
2023/09/06 17:13:55;;;;;;;8.73;4.63;;;;;;;;;;5075926;28;20251;-71
2023/09/06 17:16:23;;;;;;;6.43;4.50;;;;;;;;;;5075536;28;20213;-71
2023/09/06 17:18:51;;;;;;;5.87;4.33;;;;;;;;;;5057836;28;20268;-72
2023/09/06 17:21:18;;;;;;;10.03;4.80;;;;;;;;;;5075511;28;20182;-72
2023/09/06 17:23:45;;;;;;;7.30;4.67;;;;;;;;;;5057145;28;20210;-72
2023/09/06 17:26:30;;;;;;;8.37;5.00;;;;;;;;;;5049557;28;20281;-72
2023/09/06 17:28:57;;;;;;;7.00;4.77;;;;;;;;;;5074932;28;20190;-71
2023/09/06 17:31:25;;;;;;;5.07;4.57;;;;;;;;;;5057388;28;20190;-71
2023/09/06 17:33:54;;;;;;;8.17;5.10;;;;;;;;;;5074962;28;20247;-71
2023/09/06 17:36:25;;;;;;;8.17;4.87;;;;;;;;;;5056798;28;20621;-72
2023/09/06 17:38:54;;;;;;;21.13;5.77;;;;;;;;;;5057725;28;20209;-71
2023/09/06 17:41:22;;;;;;;17.83;5.73;;;;;;;;;;5056747;28;20201;-72
2023/09/06 17:43:50;;;;;;;9.30;4.80;;;;;;;;;;5056664;28;20202;-72
2023/09/06 17:46:35;;;;;;;7.00;5.13;;;;;;;;;;5074962;28;20628;-71
2023/09/06 17:49:05;;;;;;;9.97;5.83;;;;;;;;;;5021347;28;20244;-72
2023/09/06 17:55:27;;;;;;;9.60;5.03;;;;;;;;;;5074127;28;20193;-72
2023/09/06 17:57:57;;;;;;;7.63;5.57;;;;;;;;;;5040273;28;20582;-71
2023/09/06 18:00:28;;;;;;;11.20;5.47;;;;;;;;;;5056952;28;20224;-71
2023/09/06 18:02:59;;;;;;;7.27;4.57;;;;;;;;;;5056157;28;20276;-71
2023/09/06 18:05:32;;;;;;;8.93;4.30;;;;;;;;;;5074072;28;20217;-71
2023/09/06 18:08:00;;;;;;;12.37;5.10;;;;;;;;;;5057196;28;20509;-71
2023/09/06 18:10:28;;;;;;;22.00;6.07;;;;;;;;;;5055096;28;20244;-70
2023/09/06 18:16:55;;;;;;;21.20;7.27;;;;;;;;;;5074222;28;20160;-71
2023/09/06 18:23:20;;;;;;;14.87;6.07;;;;;;;;;;5072864;28;20203;-71
2023/09/06 18:29:47;;;;;;;7.50;6.00;;;;;;;;;;5073638;28;20149;-71
2023/09/06 18:32:14;;;;;;;10.93;6.07;;;;;;;;;;5056335;28;20228;-72
2023/09/06 18:34:41;;;;;;;9.97;6.50;;;;;;;;;;5072596;28;20621;-70
2023/09/06 18:37:08;;;;;;;11.13;6.43;;;;;;;;;;5073131;28;20181;-69
2023/09/06 18:39:35;;;;;;;9.83;7.00;;;;;;;;;;5072526;28;20629;-71
2023/09/06 18:42:02;;;;;;;10.37;7.50;;;;;;;;;;5056137;28;20591;-70
2023/09/06 18:44:31;;;;;;;9.47;6.50;;;;;;;;;;5047471;28;20210;-71
2023/09/06 18:50:51;;;;;;;9.77;6.50;;;;;;;;;;5068610;28;20306;-71
2023/09/06 18:57:17;;;;;;;9.53;7.37;;;;;;;;;;5072564;28;20219;-72
2023/09/06 18:59:44;;;;;;;14.47;7.77;;;;;;;;;;5072320;28;20521;-72
2023/09/06 19:02:11;;;;;;;11.80;7.17;;;;;;;;;;5068971;28;20205;-72
2023/09/06 19:08:38;;;;;;;13.43;8.90;;;;;;;;;;5052749;28;20556;-72
2023/09/06 19:15:05;;;;;;;13.37;8.33;;;;;;;;;;5053397;28;20159;-71
2023/09/06 19:17:34;;;;;;;15.63;8.43;;;;;;;;;;5035440;28;20183;-68
2023/09/06 19:20:05;;;;;;;13.90;9.17;;;;;;;;;;5053571;28;20178;-68
2023/09/06 19:22:33;;;;;;;11.60;10.23;;;;;;;;;;5034526;28;20253;-69
2023/09/06 19:25:07;;;;;;;13.17;11.27;;;;;;;;;;5035213;28;20280;-70
2023/09/06 19:27:36;;;;;;;14.20;12.80;;;;;;;;;;5035579;28;20167;-70
2023/09/06 19:34:19;;;;;;;17.53;12.73;;;;;;;;;;5056540;28;20242;-71
2023/09/06 19:36:46;;;;;;;15.10;13.10;;;;;;;;;;5053561;28;20186;-73
2023/09/06 19:43:14;;;;;;;16.07;11.80;;;;;;;;;;5076285;28;20184;-72
2023/09/06 19:45:41;;;;;;;12.10;9.70;;;;;;;;;;5076386;28;20616;-72
2023/09/06 19:48:08;;;;;;;11.30;9.40;;;;;;;;;;5059103;28;20525;-73
2023/09/06 19:54:34;;;;;;;10.00;9.00;;;;;;;;;;5076200;28;20180;-72
2023/09/06 19:57:03;;;;;;;9.77;8.47;;;;;;;;;;5041933;28;20699;-72
2023/09/06 20:03:30;;;;;;;9.40;7.07;;;;;;;;;;5076214;28;20607;-72
2023/09/06 20:06:14;;;;;;;9.37;8.07;;;;;;;;;;5058757;28;20204;-71
2023/09/06 20:08:43;;;;;;;11.00;9.00;;;;;;;;;;5077136;28;20273;-73
2023/09/06 20:11:10;;;;;;;12.07;10.20;;;;;;;;;;5058753;28;20186;-71
2023/09/06 20:13:37;;;;;;;10.20;9.20;;;;;;;;;;5075976;28;20220;-72
2023/09/06 20:16:04;;;;;;;9.70;8.67;;;;;;;;;;5075946;28;20178;-71
2023/09/06 20:18:30;;;;;;;9.07;7.17;;;;;;;;;;5075938;28;20625;-72
2023/09/06 20:21:04;;;;;;;11.53;7.60;;;;;;;;;;5076030;28;20186;-72
2023/09/06 20:23:32;;;;;;;8.33;7.37;;;;;;;;;;5058307;28;20194;-71
2023/09/06 20:26:02;;;;;;;9.17;7.60;;;;;;;;;;5075776;28;20214;-71
2023/09/06 20:28:29;;;;;;;9.87;7.13;;;;;;;;;;5058443;28;20178;-72
2023/09/06 20:31:16;;;;;;;7.97;6.93;;;;;;;;;;5058560;28;20597;-72
2023/09/06 20:33:44;;;;;;;8.53;7.27;;;;;;;;;;5041528;28;20285;-71
2023/09/06 20:36:28;;;;;;;11.50;9.40;;;;;;;;;;5076401;28;20162;-72
2023/09/06 20:38:55;;;;;;;11.07;9.40;;;;;;;;;;5058016;28;20194;-72
2023/09/06 20:41:40;;;;;;;10.37;9.27;;;;;;;;;;5075964;28;20174;-72
2023/09/06 20:48:09;;;;;;;14.17;10.27;;;;;;;;;;5075689;28;20521;-72
2023/09/06 20:50:36;;;;;;;12.20;8.60;;;;;;;;;;5057822;28;20212;-71
2023/09/06 20:53:24;;;;;;;11.40;9.70;;;;;;;;;;5075233;28;20162;-71